sensor_id;sensor_type;location;lat;lon;timestamp;temperature;humidity
80290;SHT30;69592;44.804;-0.550;2023-08-06T00:01:12;17.92;82.10
80290;SHT30;69592;44.804;-0.550;2023-08-06T00:03:37;17.99;82.16
80290;SHT30;69592;44.804;-0.550;2023-08-06T00:06:04;17.85;82.32
80290;SHT30;69592;44.804;-0.550;2023-08-06T00:08:30;17.96;82.16
80290;SHT30;69592;44.804;-0.550;2023-08-06T00:10:55;17.93;82.31
80290;SHT30;69592;44.804;-0.550;2023-08-06T00:13:21;17.84;82.46
80290;SHT30;69592;44.804;-0.550;2023-08-06T00:15:46;17.78;82.55
80290;SHT30;69592;44.804;-0.550;2023-08-06T00:18:14;17.71;82.66
80290;SHT30;69592;44.804;-0.550;2023-08-06T00:20:40;17.64;82.73
80290;SHT30;69592;44.804;-0.550;2023-08-06T00:23:07;17.50;83.15
80290;SHT30;69592;44.804;-0.550;2023-08-06T00:25:33;17.42;83.11
80290;SHT30;69592;44.804;-0.550;2023-08-06T00:27:58;17.42;82.78
80290;SHT30;69592;44.804;-0.550;2023-08-06T00:30:24;17.34;83.05
80290;SHT30;69592;44.804;-0.550;2023-08-06T00:32:49;17.38;82.84
80290;SHT30;69592;44.804;-0.550;2023-08-06T00:35:15;17.38;82.52
80290;SHT30;69592;44.804;-0.550;2023-08-06T00:37:40;17.32;82.24
80290;SHT30;69592;44.804;-0.550;2023-08-06T00:40:06;17.26;82.51
80290;SHT30;69592;44.804;-0.550;2023-08-06T00:42:32;17.28;82.17
80290;SHT30;69592;44.804;-0.550;2023-08-06T00:44:58;17.35;81.74
80290;SHT30;69592;44.804;-0.550;2023-08-06T00:47:23;17.32;81.78
80290;SHT30;69592;44.804;-0.550;2023-08-06T00:49:49;17.35;81.80
80290;SHT30;69592;44.804;-0.550;2023-08-06T00:52:15;17.31;81.71
80290;SHT30;69592;44.804;-0.550;2023-08-06T00:54:41;17.31;81.51
80290;SHT30;69592;44.804;-0.550;2023-08-06T00:57:07;17.40;81.31
80290;SHT30;69592;44.804;-0.550;2023-08-06T00:59:34;17.42;81.34
80290;SHT30;69592;44.804;-0.550;2023-08-06T01:02:00;17.45;81.21
80290;SHT30;69592;44.804;-0.550;2023-08-06T01:04:25;17.48;81.30
80290;SHT30;69592;44.804;-0.550;2023-08-06T01:07:19;17.51;81.21
80290;SHT30;69592;44.804;-0.550;2023-08-06T01:12:48;17.70;81.00
80290;SHT30;69592;44.804;-0.550;2023-08-06T01:15:22;17.77;80.89
80290;SHT30;69592;44.804;-0.550;2023-08-06T01:17:50;17.78;81.23
80290;SHT30;69592;44.804;-0.550;2023-08-06T01:20:15;17.81;81.29
80290;SHT30;69592;44.804;-0.550;2023-08-06T01:22:41;17.77;81.16
80290;SHT30;69592;44.804;-0.550;2023-08-06T01:25:07;17.61;81.63
80290;SHT30;69592;44.804;-0.550;2023-08-06T01:27:49;17.62;81.68
80290;SHT30;69592;44.804;-0.550;2023-08-06T01:30:28;17.71;81.91
80290;SHT30;69592;44.804;-0.550;2023-08-06T01:32:59;17.74;81.66
80290;SHT30;69592;44.804;-0.550;2023-08-06T01:35:26;17.77;81.36
80290;SHT30;69592;44.804;-0.550;2023-08-06T01:37:52;17.72;81.41
80290;SHT30;69592;44.804;-0.550;2023-08-06T01:40:18;17.72;81.61
80290;SHT30;69592;44.804;-0.550;2023-08-06T01:42:43;17.72;81.54
80290;SHT30;69592;44.804;-0.550;2023-08-06T01:45:09;17.75;81.78
80290;SHT30;69592;44.804;-0.550;2023-08-06T01:47:35;17.72;81.50
80290;SHT30;69592;44.804;-0.550;2023-08-06T01:50:01;17.74;81.49
80290;SHT30;69592;44.804;-0.550;2023-08-06T01:52:27;17.82;81.49
80290;SHT30;69592;44.804;-0.550;2023-08-06T01:54:52;17.86;81.14
80290;SHT30;69592;44.804;-0.550;2023-08-06T01:57:18;17.86;81.15
80290;SHT30;69592;44.804;-0.550;2023-08-06T01:59:43;17.96;80.90
80290;SHT30;69592;44.804;-0.550;2023-08-06T02:02:08;17.99;80.79
80290;SHT30;69592;44.804;-0.550;2023-08-06T02:04:34;17.89;81.22
80290;SHT30;69592;44.804;-0.550;2023-08-06T02:06:59;17.79;81.10
80290;SHT30;69592;44.804;-0.550;2023-08-06T02:09:25;17.82;81.10
80290;SHT30;69592;44.804;-0.550;2023-08-06T02:11:50;17.79;81.09
80290;SHT30;69592;44.804;-0.550;2023-08-06T02:14:15;17.88;80.85
80290;SHT30;69592;44.804;-0.550;2023-08-06T02:16:41;17.91;80.82
80290;SHT30;69592;44.804;-0.550;2023-08-06T02:19:07;18.02;80.77
80290;SHT30;69592;44.804;-0.550;2023-08-06T02:21:32;18.08;80.57
80290;SHT30;69592;44.804;-0.550;2023-08-06T02:23:57;18.10;80.47
80290;SHT30;69592;44.804;-0.550;2023-08-06T02:26:23;18.12;80.57
80290;SHT30;69592;44.804;-0.550;2023-08-06T02:28:48;18.15;80.49
80290;SHT30;69592;44.804;-0.550;2023-08-06T02:31:13;18.15;80.46
80290;SHT30;69592;44.804;-0.550;2023-08-06T02:33:39;18.12;80.31
80290;SHT30;69592;44.804;-0.550;2023-08-06T02:36:04;17.98;80.46
80290;SHT30;69592;44.804;-0.550;2023-08-06T02:38:31;18.03;79.86
80290;SHT30;69592;44.804;-0.550;2023-08-06T02:40:56;18.06;80.33
80290;SHT30;69592;44.804;-0.550;2023-08-06T02:43:22;17.99;79.83
80290;SHT30;69592;44.804;-0.550;2023-08-06T02:45:47;17.91;80.03
80290;SHT30;69592;44.804;-0.550;2023-08-06T02:48:12;17.81;80.34
80290;SHT30;69592;44.804;-0.550;2023-08-06T02:50:41;17.95;80.30
80290;SHT30;69592;44.804;-0.550;2023-08-06T02:53:07;17.85;80.54
80290;SHT30;69592;44.804;-0.550;2023-08-06T02:55:36;17.92;80.14
80290;SHT30;69592;44.804;-0.550;2023-08-06T02:58:02;17.85;80.22
80290;SHT30;69592;44.804;-0.550;2023-08-06T03:00:27;17.89;80.22
80290;SHT30;69592;44.804;-0.550;2023-08-06T03:02:53;17.98;79.67
80290;SHT30;69592;44.804;-0.550;2023-08-06T03:05:19;17.92;79.76
80290;SHT30;69592;44.804;-0.550;2023-08-06T03:07:44;17.96;79.77
80290;SHT30;69592;44.804;-0.550;2023-08-06T03:10:10;17.79;79.80
80290;SHT30;69592;44.804;-0.550;2023-08-06T03:12:35;17.81;79.88
80290;SHT30;69592;44.804;-0.550;2023-08-06T03:15:00;17.58;80.59
80290;SHT30;69592;44.804;-0.550;2023-08-06T03:17:26;17.58;80.67
80290;SHT30;69592;44.804;-0.550;2023-08-06T03:19:51;17.62;80.63
80290;SHT30;69592;44.804;-0.550;2023-08-06T03:22:17;17.61;80.32
80290;SHT30;69592;44.804;-0.550;2023-08-06T03:24:42;17.70;80.42
80290;SHT30;69592;44.804;-0.550;2023-08-06T03:27:07;17.60;80.10
80290;SHT30;69592;44.804;-0.550;2023-08-06T03:29:33;17.71;80.32
80290;SHT30;69592;44.804;-0.550;2023-08-06T03:31:58;17.74;79.76
80290;SHT30;69592;44.804;-0.550;2023-08-06T03:34:23;17.68;80.31
80290;SHT30;69592;44.804;-0.550;2023-08-06T03:36:49;17.71;80.16
80290;SHT30;69592;44.804;-0.550;2023-08-06T03:39:14;17.78;80.01
80290;SHT30;69592;44.804;-0.550;2023-08-06T03:41:40;17.75;79.78
80290;SHT30;69592;44.804;-0.550;2023-08-06T03:44:05;17.78;80.38
80290;SHT30;69592;44.804;-0.550;2023-08-06T03:46:31;17.68;79.99
80290;SHT30;69592;44.804;-0.550;2023-08-06T03:49:00;17.62;80.06
80290;SHT30;69592;44.804;-0.550;2023-08-06T03:51:26;17.65;80.60
80290;SHT30;69592;44.804;-0.550;2023-08-06T03:53:51;17.65;80.41
80290;SHT30;69592;44.804;-0.550;2023-08-06T03:56:17;17.64;80.57
80290;SHT30;69592;44.804;-0.550;2023-08-06T03:58:45;17.61;80.20
80290;SHT30;69592;44.804;-0.550;2023-08-06T04:01:10;17.47;80.10
80290;SHT30;69592;44.804;-0.550;2023-08-06T04:03:36;17.47;80.39
80290;SHT30;69592;44.804;-0.550;2023-08-06T04:06:04;17.41;80.64
80290;SHT30;69592;44.804;-0.550;2023-08-06T04:08:30;17.40;80.59
80290;SHT30;69592;44.804;-0.550;2023-08-06T04:10:55;17.44;80.29
80290;SHT30;69592;44.804;-0.550;2023-08-06T04:13:21;17.44;80.53
80290;SHT30;69592;44.804;-0.550;2023-08-06T04:15:46;17.35;80.47
80290;SHT30;69592;44.804;-0.550;2023-08-06T04:18:12;17.38;80.72
80290;SHT30;69592;44.804;-0.550;2023-08-06T04:20:47;17.52;80.28
80290;SHT30;69592;44.804;-0.550;2023-08-06T04:23:14;17.40;80.31
80290;SHT30;69592;44.804;-0.550;2023-08-06T04:25:40;17.30;80.58
80290;SHT30;69592;44.804;-0.550;2023-08-06T04:28:06;17.26;80.99
80290;SHT30;69592;44.804;-0.550;2023-08-06T04:30:32;17.27;80.71
80290;SHT30;69592;44.804;-0.550;2023-08-06T04:32:57;17.24;80.90
80290;SHT30;69592;44.804;-0.550;2023-08-06T04:35:25;17.35;80.42
80290;SHT30;69592;44.804;-0.550;2023-08-06T04:37:51;17.37;80.31
80290;SHT30;69592;44.804;-0.550;2023-08-06T04:40:16;17.47;80.20
80290;SHT30;69592;44.804;-0.550;2023-08-06T04:42:42;17.60;80.07
80290;SHT30;69592;44.804;-0.550;2023-08-06T04:45:07;17.58;79.78
80290;SHT30;69592;44.804;-0.550;2023-08-06T04:47:33;17.58;79.87
80290;SHT30;69592;44.804;-0.550;2023-08-06T04:49:58;17.55;79.89
80290;SHT30;69592;44.804;-0.550;2023-08-06T04:52:24;17.51;79.97
80290;SHT30;69592;44.804;-0.550;2023-08-06T04:54:52;17.48;79.46
80290;SHT30;69592;44.804;-0.550;2023-08-06T04:57:18;17.40;79.84
80290;SHT30;69592;44.804;-0.550;2023-08-06T04:59:43;17.34;79.93
80290;SHT30;69592;44.804;-0.550;2023-08-06T05:02:08;17.35;79.67
80290;SHT30;69592;44.804;-0.550;2023-08-06T05:04:34;17.44;79.78
80290;SHT30;69592;44.804;-0.550;2023-08-06T05:06:59;17.48;78.92
80290;SHT30;69592;44.804;-0.550;2023-08-06T05:09:25;17.51;79.06
80290;SHT30;69592;44.804;-0.550;2023-08-06T05:11:51;17.58;79.01
80290;SHT30;69592;44.804;-0.550;2023-08-06T05:14:16;17.68;78.80
80290;SHT30;69592;44.804;-0.550;2023-08-06T05:16:42;17.65;78.72
80290;SHT30;69592;44.804;-0.550;2023-08-06T05:19:07;17.81;79.24
80290;SHT30;69592;44.804;-0.550;2023-08-06T05:21:32;17.86;78.71
80290;SHT30;69592;44.804;-0.550;2023-08-06T05:23:58;17.79;78.93
80290;SHT30;69592;44.804;-0.550;2023-08-06T05:26:23;17.77;78.76
80290;SHT30;69592;44.804;-0.550;2023-08-06T05:28:49;17.89;78.58
80290;SHT30;69592;44.804;-0.550;2023-08-06T05:31:14;17.86;78.45
80290;SHT30;69592;44.804;-0.550;2023-08-06T05:33:40;17.84;78.51
80290;SHT30;69592;44.804;-0.550;2023-08-06T05:36:05;17.78;78.19
80290;SHT30;69592;44.804;-0.550;2023-08-06T05:38:30;17.84;78.25
80290;SHT30;69592;44.804;-0.550;2023-08-06T05:40:56;17.85;78.28
80290;SHT30;69592;44.804;-0.550;2023-08-06T05:43:22;17.84;78.47
80290;SHT30;69592;44.804;-0.550;2023-08-06T05:45:49;17.91;79.79
80290;SHT30;69592;44.804;-0.550;2023-08-06T05:48:15;17.65;79.50
80290;SHT30;69592;44.804;-0.550;2023-08-06T05:50:40;17.71;78.76
80290;SHT30;69592;44.804;-0.550;2023-08-06T05:53:05;17.62;79.32
80290;SHT30;69592;44.804;-0.550;2023-08-06T05:55:31;17.57;78.80
80290;SHT30;69592;44.804;-0.550;2023-08-06T05:57:58;17.62;79.19
80290;SHT30;69592;44.804;-0.550;2023-08-06T06:00:23;17.77;79.44
80290;SHT30;69592;44.804;-0.550;2023-08-06T06:02:51;17.81;79.29
80290;SHT30;69592;44.804;-0.550;2023-08-06T06:05:17;17.99;79.29
80290;SHT30;69592;44.804;-0.550;2023-08-06T06:07:42;18.08;78.81
80290;SHT30;69592;44.804;-0.550;2023-08-06T06:10:08;17.92;78.85
80290;SHT30;69592;44.804;-0.550;2023-08-06T06:12:33;18.01;79.26
80290;SHT30;69592;44.804;-0.550;2023-08-06T06:14:59;18.01;79.13
80290;SHT30;69592;44.804;-0.550;2023-08-06T06:17:26;18.03;79.09
80290;SHT30;69592;44.804;-0.550;2023-08-06T06:19:51;18.02;79.29
80290;SHT30;69592;44.804;-0.550;2023-08-06T06:22:17;18.05;78.70
80290;SHT30;69592;44.804;-0.550;2023-08-06T06:24:42;18.19;78.67
80290;SHT30;69592;44.804;-0.550;2023-08-06T06:27:08;18.21;78.05
80290;SHT30;69592;44.804;-0.550;2023-08-06T06:29:33;18.32;78.51
80290;SHT30;69592;44.804;-0.550;2023-08-06T06:31:58;18.22;78.65
80290;SHT30;69592;44.804;-0.550;2023-08-06T06:34:24;18.37;78.17
80290;SHT30;69592;44.804;-0.550;2023-08-06T06:36:49;18.59;78.31
80290;SHT30;69592;44.804;-0.550;2023-08-06T06:39:15;18.56;77.47
80290;SHT30;69592;44.804;-0.550;2023-08-06T06:41:41;18.80;77.11
80290;SHT30;69592;44.804;-0.550;2023-08-06T06:44:07;18.74;76.64
80290;SHT30;69592;44.804;-0.550;2023-08-06T06:46:32;18.81;77.01
80290;SHT30;69592;44.804;-0.550;2023-08-06T06:48:57;18.87;76.65
80290;SHT30;69592;44.804;-0.550;2023-08-06T06:51:23;19.11;76.44
80290;SHT30;69592;44.804;-0.550;2023-08-06T06:53:48;19.11;75.23
80290;SHT30;69592;44.804;-0.550;2023-08-06T06:56:13;19.32;75.61
80290;SHT30;69592;44.804;-0.550;2023-08-06T06:58:39;19.38;75.10
80290;SHT30;69592;44.804;-0.550;2023-08-06T07:01:06;19.10;75.67
80290;SHT30;69592;44.804;-0.550;2023-08-06T07:03:32;18.94;75.37
80290;SHT30;69592;44.804;-0.550;2023-08-06T07:05:58;19.14;75.60
80290;SHT30;69592;44.804;-0.550;2023-08-06T07:08:24;19.25;74.83
80290;SHT30;69592;44.804;-0.550;2023-08-06T07:10:50;19.28;74.67
80290;SHT30;69592;44.804;-0.550;2023-08-06T07:13:15;19.54;73.64
80290;SHT30;69592;44.804;-0.550;2023-08-06T07:15:42;19.41;72.76
80290;SHT30;69592;44.804;-0.550;2023-08-06T07:18:07;19.39;72.57
80290;SHT30;69592;44.804;-0.550;2023-08-06T07:20:33;19.06;73.32
80290;SHT30;69592;44.804;-0.550;2023-08-06T07:22:59;18.76;73.97
80290;SHT30;69592;44.804;-0.550;2023-08-06T07:25:25;18.91;73.72
80290;SHT30;69592;44.804;-0.550;2023-08-06T07:27:50;18.97;73.81
80290;SHT30;69592;44.804;-0.550;2023-08-06T07:30:16;19.24;72.98
80290;SHT30;69592;44.804;-0.550;2023-08-06T07:32:42;19.34;72.41
80290;SHT30;69592;44.804;-0.550;2023-08-06T07:35:08;19.14;72.83
80290;SHT30;69592;44.804;-0.550;2023-08-06T07:37:38;19.12;73.36
80290;SHT30;69592;44.804;-0.550;2023-08-06T07:40:03;19.28;73.15
80290;SHT30;69592;44.804;-0.550;2023-08-06T07:42:29;19.41;72.78
80290;SHT30;69592;44.804;-0.550;2023-08-06T07:44:56;19.54;72.80
80290;SHT30;69592;44.804;-0.550;2023-08-06T07:47:22;19.62;72.20
80290;SHT30;69592;44.804;-0.550;2023-08-06T07:49:48;19.80;72.11
80290;SHT30;69592;44.804;-0.550;2023-08-06T07:52:13;19.58;72.13
80290;SHT30;69592;44.804;-0.550;2023-08-06T07:54:38;19.39;72.24
80290;SHT30;69592;44.804;-0.550;2023-08-06T07:57:04;19.47;72.62
80290;SHT30;69592;44.804;-0.550;2023-08-06T07:59:30;19.44;72.58
80290;SHT30;69592;44.804;-0.550;2023-08-06T08:01:55;19.28;72.62
80290;SHT30;69592;44.804;-0.550;2023-08-06T08:04:21;19.36;73.36
80290;SHT30;69592;44.804;-0.550;2023-08-06T08:06:46;19.42;72.83
80290;SHT30;69592;44.804;-0.550;2023-08-06T08:09:12;19.38;72.46
80290;SHT30;69592;44.804;-0.550;2023-08-06T08:11:39;19.48;72.70
80290;SHT30;69592;44.804;-0.550;2023-08-06T08:14:04;19.59;72.42
80290;SHT30;69592;44.804;-0.550;2023-08-06T08:16:29;19.70;72.87
80290;SHT30;69592;44.804;-0.550;2023-08-06T08:18:55;19.92;72.07
80290;SHT30;69592;44.804;-0.550;2023-08-06T08:21:20;19.97;71.12
80290;SHT30;69592;44.804;-0.550;2023-08-06T08:23:45;19.97;71.29
80290;SHT30;69592;44.804;-0.550;2023-08-06T08:26:11;20.44;70.92
80290;SHT30;69592;44.804;-0.550;2023-08-06T08:28:37;20.60;70.38
80290;SHT30;69592;44.804;-0.550;2023-08-06T08:31:02;20.83;69.50
80290;SHT30;69592;44.804;-0.550;2023-08-06T08:33:27;21.22;68.96
80290;SHT30;69592;44.804;-0.550;2023-08-06T08:35:53;21.50;68.44
80290;SHT30;69592;44.804;-0.550;2023-08-06T08:38:18;21.62;67.47
80290;SHT30;69592;44.804;-0.550;2023-08-06T08:40:51;21.93;67.42
80290;SHT30;69592;44.804;-0.550;2023-08-06T08:43:20;21.96;67.29
80290;SHT30;69592;44.804;-0.550;2023-08-06T08:45:50;22.08;66.42
80290;SHT30;69592;44.804;-0.550;2023-08-06T08:48:16;21.43;66.77
80290;SHT30;69592;44.804;-0.550;2023-08-06T08:50:44;21.67;65.69
80290;SHT30;69592;44.804;-0.550;2023-08-06T08:53:11;21.41;66.69
80290;SHT30;69592;44.804;-0.550;2023-08-06T08:55:38;21.55;67.78
80290;SHT30;69592;44.804;-0.550;2023-08-06T08:58:03;21.66;68.16
80290;SHT30;69592;44.804;-0.550;2023-08-06T09:00:29;21.67;68.04
80290;SHT30;69592;44.804;-0.550;2023-08-06T09:02:54;21.18;68.10
80290;SHT30;69592;44.804;-0.550;2023-08-06T09:05:21;21.29;66.17
80290;SHT30;69592;44.804;-0.550;2023-08-06T09:07:49;20.94;67.46
80290;SHT30;69592;44.804;-0.550;2023-08-06T09:10:20;21.26;67.55
80290;SHT30;69592;44.804;-0.550;2023-08-06T09:12:50;21.42;66.74
80290;SHT30;69592;44.804;-0.550;2023-08-06T09:15:16;21.46;65.70
80290;SHT30;69592;44.804;-0.550;2023-08-06T09:17:41;21.69;66.21
80290;SHT30;69592;44.804;-0.550;2023-08-06T09:20:13;21.19;66.02
80290;SHT30;69592;44.804;-0.550;2023-08-06T09:22:39;21.29;66.51
80290;SHT30;69592;44.804;-0.550;2023-08-06T09:25:06;21.49;64.64
80290;SHT30;69592;44.804;-0.550;2023-08-06T09:27:36;21.12;65.34
80290;SHT30;69592;44.804;-0.550;2023-08-06T09:30:02;21.45;64.18
80290;SHT30;69592;44.804;-0.550;2023-08-06T09:32:45;21.47;64.27
80290;SHT30;69592;44.804;-0.550;2023-08-06T09:35:15;21.97;64.18
80290;SHT30;69592;44.804;-0.550;2023-08-06T09:37:42;21.76;64.36
80290;SHT30;69592;44.804;-0.550;2023-08-06T09:42:48;21.49;63.76
80290;SHT30;69592;44.804;-0.550;2023-08-06T09:45:13;21.42;64.31
80290;SHT30;69592;44.804;-0.550;2023-08-06T09:47:40;20.95;64.61
80290;SHT30;69592;44.804;-0.550;2023-08-06T09:50:15;21.63;64.56
80290;SHT30;69592;44.804;-0.550;2023-08-06T09:52:42;21.69;63.80
80290;SHT30;69592;44.804;-0.550;2023-08-06T09:55:08;21.19;64.73
80290;SHT30;69592;44.804;-0.550;2023-08-06T09:57:36;21.66;64.79
80290;SHT30;69592;44.804;-0.550;2023-08-06T10:00:02;21.90;64.75
80290;SHT30;69592;44.804;-0.550;2023-08-06T10:02:27;21.72;64.35
80290;SHT30;69592;44.804;-0.550;2023-08-06T10:04:55;21.75;65.09
80290;SHT30;69592;44.804;-0.550;2023-08-06T10:07:21;21.55;64.42
80290;SHT30;69592;44.804;-0.550;2023-08-06T10:09:49;20.99;66.04
80290;SHT30;69592;44.804;-0.550;2023-08-06T10:12:15;21.34;65.20
80290;SHT30;69592;44.804;-0.550;2023-08-06T10:14:43;21.50;65.69
80290;SHT30;69592;44.804;-0.550;2023-08-06T10:17:09;21.89;65.19
80290;SHT30;69592;44.804;-0.550;2023-08-06T10:19:35;22.14;64.78
80290;SHT30;69592;44.804;-0.550;2023-08-06T10:22:12;22.17;64.67
80290;SHT30;69592;44.804;-0.550;2023-08-06T10:27:12;22.88;63.03
80290;SHT30;69592;44.804;-0.550;2023-08-06T10:29:38;22.79;63.44
80290;SHT30;69592;44.804;-0.550;2023-08-06T10:32:04;22.96;63.82
80290;SHT30;69592;44.804;-0.550;2023-08-06T10:34:54;23.03;62.72
80290;SHT30;69592;44.804;-0.550;2023-08-06T10:37:21;23.09;62.60
80290;SHT30;69592;44.804;-0.550;2023-08-06T10:39:49;22.88;62.11
80290;SHT30;69592;44.804;-0.550;2023-08-06T10:42:22;22.92;61.74
80290;SHT30;69592;44.804;-0.550;2023-08-06T10:45:11;22.55;61.85
80290;SHT30;69592;44.804;-0.550;2023-08-06T10:47:39;22.40;62.01
80290;SHT30;69592;44.804;-0.550;2023-08-06T10:50:10;22.68;61.83
80290;SHT30;69592;44.804;-0.550;2023-08-06T10:52:39;22.78;61.09
80290;SHT30;69592;44.804;-0.550;2023-08-06T10:55:05;22.45;61.23
80290;SHT30;69592;44.804;-0.550;2023-08-06T10:57:30;22.64;60.28
80290;SHT30;69592;44.804;-0.550;2023-08-06T10:59:55;22.51;61.37
80290;SHT30;69592;44.804;-0.550;2023-08-06T11:02:21;22.48;61.28
80290;SHT30;69592;44.804;-0.550;2023-08-06T11:04:48;22.89;60.08
80290;SHT30;69592;44.804;-0.550;2023-08-06T11:07:13;23.33;60.38
80290;SHT30;69592;44.804;-0.550;2023-08-06T11:09:39;23.92;58.86
80290;SHT30;69592;44.804;-0.550;2023-08-06T11:12:09;24.18;59.02
80290;SHT30;69592;44.804;-0.550;2023-08-06T11:14:35;24.56;57.16
80290;SHT30;69592;44.804;-0.550;2023-08-06T11:17:00;24.58;55.82
80290;SHT30;69592;44.804;-0.550;2023-08-06T11:19:26;24.64;56.06
80290;SHT30;69592;44.804;-0.550;2023-08-06T11:21:52;23.71;56.75
80290;SHT30;69592;44.804;-0.550;2023-08-06T11:24:17;23.85;58.45
80290;SHT30;69592;44.804;-0.550;2023-08-06T11:26:42;23.69;58.67
80290;SHT30;69592;44.804;-0.550;2023-08-06T11:29:09;23.64;58.11
80290;SHT30;69592;44.804;-0.550;2023-08-06T11:31:36;23.69;58.32
80290;SHT30;69592;44.804;-0.550;2023-08-06T11:34:01;23.13;59.42
80290;SHT30;69592;44.804;-0.550;2023-08-06T11:36:34;22.54;61.39
80290;SHT30;69592;44.804;-0.550;2023-08-06T11:39:02;22.62;61.19
80290;SHT30;69592;44.804;-0.550;2023-08-06T11:41:29;22.38;61.43
80290;SHT30;69592;44.804;-0.550;2023-08-06T11:43:55;22.03;62.31
80290;SHT30;69592;44.804;-0.550;2023-08-06T11:46:20;22.20;62.36
80290;SHT30;69592;44.804;-0.550;2023-08-06T11:48:55;22.30;62.51
80290;SHT30;69592;44.804;-0.550;2023-08-06T11:51:25;22.33;62.74
80290;SHT30;69592;44.804;-0.550;2023-08-06T11:53:57;22.64;61.92
80290;SHT30;69592;44.804;-0.550;2023-08-06T11:56:23;23.11;60.98
80290;SHT30;69592;44.804;-0.550;2023-08-06T11:58:49;23.32;59.23
80290;SHT30;69592;44.804;-0.550;2023-08-06T12:01:14;23.23;60.52
80290;SHT30;69592;44.804;-0.550;2023-08-06T12:03:40;23.09;60.14
80290;SHT30;69592;44.804;-0.550;2023-08-06T12:06:06;23.03;59.79
80290;SHT30;69592;44.804;-0.550;2023-08-06T12:08:37;23.15;59.84
80290;SHT30;69592;44.804;-0.550;2023-08-06T12:11:03;23.42;59.89
80290;SHT30;69592;44.804;-0.550;2023-08-06T12:13:29;23.11;59.11
80290;SHT30;69592;44.804;-0.550;2023-08-06T12:15:54;22.85;59.75
80290;SHT30;69592;44.804;-0.550;2023-08-06T12:18:22;22.51;60.89
80290;SHT30;69592;44.804;-0.550;2023-08-06T12:20:47;22.48;60.91
80290;SHT30;69592;44.804;-0.550;2023-08-06T12:23:13;22.40;61.44
80290;SHT30;69592;44.804;-0.550;2023-08-06T12:25:42;22.71;58.90
80290;SHT30;69592;44.804;-0.550;2023-08-06T12:28:07;23.20;58.21
80290;SHT30;69592;44.804;-0.550;2023-08-06T12:30:34;23.80;57.69
80290;SHT30;69592;44.804;-0.550;2023-08-06T12:32:59;23.53;56.06
80290;SHT30;69592;44.804;-0.550;2023-08-06T12:35:25;23.19;57.22
80290;SHT30;69592;44.804;-0.550;2023-08-06T12:37:51;23.69;55.61
80290;SHT30;69592;44.804;-0.550;2023-08-06T12:40:20;24.01;54.28
80290;SHT30;69592;44.804;-0.550;2023-08-06T12:42:45;24.08;53.26
80290;SHT30;69592;44.804;-0.550;2023-08-06T12:45:11;24.38;52.85
80290;SHT30;69592;44.804;-0.550;2023-08-06T12:47:37;24.49;52.78
80290;SHT30;69592;44.804;-0.550;2023-08-06T12:50:02;24.31;54.62
80290;SHT30;69592;44.804;-0.550;2023-08-06T12:52:28;23.74;55.94
80290;SHT30;69592;44.804;-0.550;2023-08-06T12:54:53;23.62;56.21
80290;SHT30;69592;44.804;-0.550;2023-08-06T12:57:18;23.30;56.83
80290;SHT30;69592;44.804;-0.550;2023-08-06T12:59:44;23.60;56.51
80290;SHT30;69592;44.804;-0.550;2023-08-06T13:02:09;23.69;55.43
80290;SHT30;69592;44.804;-0.550;2023-08-06T13:04:34;24.34;54.74
80290;SHT30;69592;44.804;-0.550;2023-08-06T13:07:00;24.44;52.76
80290;SHT30;69592;44.804;-0.550;2023-08-06T13:09:25;24.35;51.27
80290;SHT30;69592;44.804;-0.550;2023-08-06T13:11:52;23.47;54.30
80290;SHT30;69592;44.804;-0.550;2023-08-06T13:14:18;23.36;55.06
80290;SHT30;69592;44.804;-0.550;2023-08-06T13:16:44;23.23;56.38
80290;SHT30;69592;44.804;-0.550;2023-08-06T13:19:10;23.46;56.82
80290;SHT30;69592;44.804;-0.550;2023-08-06T13:24:08;24.18;52.65
80290;SHT30;69592;44.804;-0.550;2023-08-06T13:26:33;24.64;52.42
80290;SHT30;69592;44.804;-0.550;2023-08-06T13:28:59;25.06;52.01
80290;SHT30;69592;44.804;-0.550;2023-08-06T13:31:26;25.29;51.19
80290;SHT30;69592;44.804;-0.550;2023-08-06T13:33:52;24.58;52.49
80290;SHT30;69592;44.804;-0.550;2023-08-06T13:36:19;24.54;53.67
80290;SHT30;69592;44.804;-0.550;2023-08-06T13:38:44;24.65;53.76
80290;SHT30;69592;44.804;-0.550;2023-08-06T13:41:10;24.51;54.41
80290;SHT30;69592;44.804;-0.550;2023-08-06T13:43:35;24.37;54.27
80290;SHT30;69592;44.804;-0.550;2023-08-06T13:46:01;24.47;53.67
80290;SHT30;69592;44.804;-0.550;2023-08-06T13:48:26;24.86;53.35
80290;SHT30;69592;44.804;-0.550;2023-08-06T13:50:51;24.27;54.08
80290;SHT30;69592;44.804;-0.550;2023-08-06T13:53:17;23.77;55.04
80290;SHT30;69592;44.804;-0.550;2023-08-06T13:55:42;23.60;55.57
80290;SHT30;69592;44.804;-0.550;2023-08-06T13:58:07;24.01;56.28
80290;SHT30;69592;44.804;-0.550;2023-08-06T14:00:34;24.37;54.27
80290;SHT30;69592;44.804;-0.550;2023-08-06T14:03:00;24.83;54.33
80290;SHT30;69592;44.804;-0.550;2023-08-06T14:05:25;25.33;52.86
80290;SHT30;69592;44.804;-0.550;2023-08-06T14:07:51;25.85;52.45
80290;SHT30;69592;44.804;-0.550;2023-08-06T14:10:16;26.39;50.68
80290;SHT30;69592;44.804;-0.550;2023-08-06T14:12:41;26.80;49.13
80290;SHT30;69592;44.804;-0.550;2023-08-06T14:15:07;27.13;49.60
80290;SHT30;69592;44.804;-0.550;2023-08-06T14:17:33;26.38;50.39
80290;SHT30;69592;44.804;-0.550;2023-08-06T14:19:58;25.94;52.23
80290;SHT30;69592;44.804;-0.550;2023-08-06T14:22:25;26.92;50.00
80290;SHT30;69592;44.804;-0.550;2023-08-06T14:24:51;26.59;49.81
80290;SHT30;69592;44.804;-0.550;2023-08-06T14:27:16;26.48;50.97
80290;SHT30;69592;44.804;-0.550;2023-08-06T14:29:42;26.83;50.63
80290;SHT30;69592;44.804;-0.550;2023-08-06T14:32:07;26.15;50.99
80290;SHT30;69592;44.804;-0.550;2023-08-06T14:34:32;26.87;49.72
80290;SHT30;69592;44.804;-0.550;2023-08-06T14:36:58;26.20;49.75
80290;SHT30;69592;44.804;-0.550;2023-08-06T14:39:24;26.36;50.40
80290;SHT30;69592;44.804;-0.550;2023-08-06T14:41:49;25.26;51.99
80290;SHT30;69592;44.804;-0.550;2023-08-06T14:44:18;25.15;53.19
80290;SHT30;69592;44.804;-0.550;2023-08-06T14:46:43;25.37;52.41
80290;SHT30;69592;44.804;-0.550;2023-08-06T14:49:08;24.78;53.43
80290;SHT30;69592;44.804;-0.550;2023-08-06T14:51:34;24.45;54.24
80290;SHT30;69592;44.804;-0.550;2023-08-06T14:53:59;24.73;53.14
80290;SHT30;69592;44.804;-0.550;2023-08-06T14:56:24;24.22;53.86
80290;SHT30;69592;44.804;-0.550;2023-08-06T14:58:50;24.32;54.82
80290;SHT30;69592;44.804;-0.550;2023-08-06T15:01:15;24.17;54.38
80290;SHT30;69592;44.804;-0.550;2023-08-06T15:03:40;24.17;54.61
80290;SHT30;69592;44.804;-0.550;2023-08-06T15:06:06;24.55;53.99
80290;SHT30;69592;44.804;-0.550;2023-08-06T15:08:31;24.61;53.95
80290;SHT30;69592;44.804;-0.550;2023-08-06T15:10:57;24.22;53.83
80290;SHT30;69592;44.804;-0.550;2023-08-06T15:13:22;24.64;54.48
80290;SHT30;69592;44.804;-0.550;2023-08-06T15:15:50;25.46;52.60
80290;SHT30;69592;44.804;-0.550;2023-08-06T15:18:16;26.24;51.58
80290;SHT30;69592;44.804;-0.550;2023-08-06T15:20:42;26.32;51.06